sensor_id;sensor_type;location;lat;lon;timestamp;P1;durP1;ratioP1;P2;durP2;ratioP2
8737;SDS011;4405;49.272;8.590;2022-11-20T00:02:08;9.77;;;8.77;;
8737;SDS011;4405;49.272;8.590;2022-11-20T00:04:35;10.03;;;7.80;;
8737;SDS011;4405;49.272;8.590;2022-11-20T00:07:04;8.07;;;6.87;;
8737;SDS011;4405;49.272;8.590;2022-11-20T00:09:30;9.53;;;7.30;;
8737;SDS011;4405;49.272;8.590;2022-11-20T00:11:56;7.90;;;7.03;;
8737;SDS011;4405;49.272;8.590;2022-11-20T00:14:24;8.13;;;7.10;;
8737;SDS011;4405;49.272;8.590;2022-11-20T00:16:50;7.23;;;6.53;;
8737;SDS011;4405;49.272;8.590;2022-11-20T00:19:16;7.67;;;6.97;;
8737;SDS011;4405;49.272;8.590;2022-11-20T00:21:43;6.90;;;6.27;;
8737;SDS011;4405;49.272;8.590;2022-11-20T00:24:09;7.23;;;6.53;;
8737;SDS011;4405;49.272;8.590;2022-11-20T00:26:36;7.73;;;6.93;;
8737;SDS011;4405;49.272;8.590;2022-11-20T00:29:02;8.80;;;7.00;;
8737;SDS011;4405;49.272;8.590;2022-11-20T00:31:30;7.67;;;6.87;;
8737;SDS011;4405;49.272;8.590;2022-11-20T00:33:58;6.73;;;5.97;;
8737;SDS011;4405;49.272;8.590;2022-11-20T00:36:25;9.23;;;7.37;;
8737;SDS011;4405;49.272;8.590;2022-11-20T00:38:52;6.73;;;6.13;;
8737;SDS011;4405;49.272;8.590;2022-11-20T00:41:18;6.70;;;6.10;;
8737;SDS011;4405;49.272;8.590;2022-11-20T00:43:45;6.73;;;6.13;;
8737;SDS011;4405;49.272;8.590;2022-11-20T00:46:12;7.03;;;6.33;;
8737;SDS011;4405;49.272;8.590;2022-11-20T00:48:40;7.40;;;6.57;;
8737;SDS011;4405;49.272;8.590;2022-11-20T00:51:06;7.13;;;6.43;;
8737;SDS011;4405;49.272;8.590;2022-11-20T00:53:33;6.60;;;6.00;;
8737;SDS011;4405;49.272;8.590;2022-11-20T00:56:00;7.90;;;6.50;;
8737;SDS011;4405;49.272;8.590;2022-11-20T00:58:28;6.77;;;6.17;;
8737;SDS011;4405;49.272;8.590;2022-11-20T01:00:59;6.57;;;5.97;;
8737;SDS011;4405;49.272;8.590;2022-11-20T01:03:25;6.73;;;6.00;;
8737;SDS011;4405;49.272;8.590;2022-11-20T01:05:53;9.53;;;6.87;;
8737;SDS011;4405;49.272;8.590;2022-11-20T01:08:19;6.77;;;6.07;;
8737;SDS011;4405;49.272;8.590;2022-11-20T01:10:46;6.90;;;6.30;;
8737;SDS011;4405;49.272;8.590;2022-11-20T01:13:12;9.27;;;8.37;;
8737;SDS011;4405;49.272;8.590;2022-11-20T01:16:01;10.97;;;10.00;;
8737;SDS011;4405;49.272;8.590;2022-11-20T01:18:28;6.70;;;6.10;;
8737;SDS011;4405;49.272;8.590;2022-11-20T01:20:55;7.93;;;6.47;;
8737;SDS011;4405;49.272;8.590;2022-11-20T01:23:25;6.60;;;6.00;;
8737;SDS011;4405;49.272;8.590;2022-11-20T01:25:52;7.23;;;6.47;;
8737;SDS011;4405;49.272;8.590;2022-11-20T01:28:18;9.30;;;6.20;;
8737;SDS011;4405;49.272;8.590;2022-11-20T01:30:44;6.87;;;6.03;;
8737;SDS011;4405;49.272;8.590;2022-11-20T01:33:11;6.90;;;6.20;;
8737;SDS011;4405;49.272;8.590;2022-11-20T01:35:37;7.27;;;6.20;;
8737;SDS011;4405;49.272;8.590;2022-11-20T01:38:05;6.63;;;6.03;;
8737;SDS011;4405;49.272;8.590;2022-11-20T01:40:31;7.37;;;6.30;;
8737;SDS011;4405;49.272;8.590;2022-11-20T01:43:01;6.60;;;6.00;;
8737;SDS011;4405;49.272;8.590;2022-11-20T01:45:55;8.83;;;6.40;;
8737;SDS011;4405;49.272;8.590;2022-11-20T01:48:22;6.13;;;5.60;;
8737;SDS011;4405;49.272;8.590;2022-11-20T01:50:49;9.40;;;5.83;;
8737;SDS011;4405;49.272;8.590;2022-11-20T01:53:18;6.50;;;5.80;;
8737;SDS011;4405;49.272;8.590;2022-11-20T01:55:48;7.37;;;6.43;;
8737;SDS011;4405;49.272;8.590;2022-11-20T01:58:15;9.73;;;6.17;;
8737;SDS011;4405;49.272;8.590;2022-11-20T02:00:42;6.47;;;5.77;;
8737;SDS011;4405;49.272;8.590;2022-11-20T02:03:09;7.00;;;6.30;;
8737;SDS011;4405;49.272;8.590;2022-11-20T02:05:38;8.47;;;6.30;;
8737;SDS011;4405;49.272;8.590;2022-11-20T02:08:05;9.23;;;7.20;;
8737;SDS011;4405;49.272;8.590;2022-11-20T02:10:33;8.33;;;7.43;;
8737;SDS011;4405;49.272;8.590;2022-11-20T02:13:00;7.13;;;6.40;;
8737;SDS011;4405;49.272;8.590;2022-11-20T02:15:44;7.30;;;6.70;;
8737;SDS011;4405;49.272;8.590;2022-11-20T02:18:10;7.20;;;6.30;;
8737;SDS011;4405;49.272;8.590;2022-11-20T02:20:37;6.93;;;6.20;;
8737;SDS011;4405;49.272;8.590;2022-11-20T02:23:05;6.63;;;6.00;;
8737;SDS011;4405;49.272;8.590;2022-11-20T02:25:36;9.70;;;6.07;;
8737;SDS011;4405;49.272;8.590;2022-11-20T02:28:02;9.37;;;6.10;;
8737;SDS011;4405;49.272;8.590;2022-11-20T02:30:29;7.23;;;6.07;;
8737;SDS011;4405;49.272;8.590;2022-11-20T02:32:57;7.00;;;6.30;;
8737;SDS011;4405;49.272;8.590;2022-11-20T02:35:40;6.00;;;5.50;;
8737;SDS011;4405;49.272;8.590;2022-11-20T02:38:09;7.03;;;5.90;;
8737;SDS011;4405;49.272;8.590;2022-11-20T02:40:37;7.03;;;6.33;;
8737;SDS011;4405;49.272;8.590;2022-11-20T02:43:04;6.47;;;5.90;;
8737;SDS011;4405;49.272;8.590;2022-11-20T02:45:32;7.47;;;6.47;;
8737;SDS011;4405;49.272;8.590;2022-11-20T02:47:58;7.63;;;6.80;;
8737;SDS011;4405;49.272;8.590;2022-11-20T02:50:25;10.37;;;7.10;;
8737;SDS011;4405;49.272;8.590;2022-11-20T02:52:51;7.93;;;6.63;;
8737;SDS011;4405;49.272;8.590;2022-11-20T02:55:18;7.57;;;6.83;;
8737;SDS011;4405;49.272;8.590;2022-11-20T02:57:45;7.67;;;7.00;;
8737;SDS011;4405;49.272;8.590;2022-11-20T03:00:12;8.93;;;6.80;;
8737;SDS011;4405;49.272;8.590;2022-11-20T03:02:41;7.77;;;6.90;;
8737;SDS011;4405;49.272;8.590;2022-11-20T03:05:08;8.07;;;7.00;;
8737;SDS011;4405;49.272;8.590;2022-11-20T03:07:34;7.40;;;6.70;;
8737;SDS011;4405;49.272;8.590;2022-11-20T03:10:00;8.87;;;6.47;;
8737;SDS011;4405;49.272;8.590;2022-11-20T03:12:30;8.43;;;6.70;;
8737;SDS011;4405;49.272;8.590;2022-11-20T03:14:58;9.90;;;6.83;;
8737;SDS011;4405;49.272;8.590;2022-11-20T03:17:25;10.10;;;7.10;;
8737;SDS011;4405;49.272;8.590;2022-11-20T03:19:51;8.40;;;6.67;;
8737;SDS011;4405;49.272;8.590;2022-11-20T03:22:20;9.63;;;7.27;;
8737;SDS011;4405;49.272;8.590;2022-11-20T03:24:47;10.07;;;6.80;;
8737;SDS011;4405;49.272;8.590;2022-11-20T03:27:13;9.93;;;7.50;;
8737;SDS011;4405;49.272;8.590;2022-11-20T03:29:39;8.70;;;7.80;;
8737;SDS011;4405;49.272;8.590;2022-11-20T03:32:07;11.70;;;8.10;;
8737;SDS011;4405;49.272;8.590;2022-11-20T03:34:34;9.80;;;7.77;;
8737;SDS011;4405;49.272;8.590;2022-11-20T03:37:00;9.50;;;7.47;;
8737;SDS011;4405;49.272;8.590;2022-11-20T03:39:26;10.20;;;7.03;;
8737;SDS011;4405;49.272;8.590;2022-11-20T03:41:53;10.70;;;7.17;;
8737;SDS011;4405;49.272;8.590;2022-11-20T03:44:20;9.30;;;7.30;;
8737;SDS011;4405;49.272;8.590;2022-11-20T03:46:47;9.57;;;7.27;;
8737;SDS011;4405;49.272;8.590;2022-11-20T03:49:14;7.83;;;6.97;;
8737;SDS011;4405;49.272;8.590;2022-11-20T03:51:41;7.97;;;7.00;;
8737;SDS011;4405;49.272;8.590;2022-11-20T03:54:07;9.43;;;7.13;;
8737;SDS011;4405;49.272;8.590;2022-11-20T03:56:35;7.67;;;6.93;;
8737;SDS011;4405;49.272;8.590;2022-11-20T03:59:01;9.73;;;7.23;;
8737;SDS011;4405;49.272;8.590;2022-11-20T04:01:29;8.60;;;6.80;;
8737;SDS011;4405;49.272;8.590;2022-11-20T04:03:56;7.93;;;7.10;;
8737;SDS011;4405;49.272;8.590;2022-11-20T04:06:25;8.87;;;7.97;;
8737;SDS011;4405;49.272;8.590;2022-11-20T04:08:53;10.33;;;7.87;;
8737;SDS011;4405;49.272;8.590;2022-11-20T04:11:20;12.00;;;9.27;;
8737;SDS011;4405;49.272;8.590;2022-11-20T04:13:49;9.50;;;7.57;;
8737;SDS011;4405;49.272;8.590;2022-11-20T04:16:16;8.77;;;7.80;;
8737;SDS011;4405;49.272;8.590;2022-11-20T04:18:43;9.53;;;8.30;;
8737;SDS011;4405;49.272;8.590;2022-11-20T04:21:12;12.00;;;8.53;;
8737;SDS011;4405;49.272;8.590;2022-11-20T04:23:40;11.23;;;8.47;;
8737;SDS011;4405;49.272;8.590;2022-11-20T04:26:07;9.67;;;8.33;;
8737;SDS011;4405;49.272;8.590;2022-11-20T04:28:36;12.37;;;8.87;;
8737;SDS011;4405;49.272;8.590;2022-11-20T04:31:03;10.93;;;8.67;;
8737;SDS011;4405;49.272;8.590;2022-11-20T04:33:29;11.07;;;8.73;;
8737;SDS011;4405;49.272;8.590;2022-11-20T04:35:59;8.87;;;7.97;;
8737;SDS011;4405;49.272;8.590;2022-11-20T04:38:25;9.33;;;8.20;;
8737;SDS011;4405;49.272;8.590;2022-11-20T04:40:56;8.97;;;8.03;;
8737;SDS011;4405;49.272;8.590;2022-11-20T04:43:22;11.13;;;7.90;;
8737;SDS011;4405;49.272;8.590;2022-11-20T04:45:50;12.43;;;10.00;;
8737;SDS011;4405;49.272;8.590;2022-11-20T04:48:16;11.63;;;9.97;;
8737;SDS011;4405;49.272;8.590;2022-11-20T04:50:45;10.97;;;9.47;;
8737;SDS011;4405;49.272;8.590;2022-11-20T04:53:12;10.77;;;8.23;;
8737;SDS011;4405;49.272;8.590;2022-11-20T04:55:38;11.00;;;9.47;;
8737;SDS011;4405;49.272;8.590;2022-11-20T04:58:06;11.30;;;9.10;;
8737;SDS011;4405;49.272;8.590;2022-11-20T05:00:32;11.30;;;7.87;;
8737;SDS011;4405;49.272;8.590;2022-11-20T05:02:58;9.50;;;8.50;;
8737;SDS011;4405;49.272;8.590;2022-11-20T05:05:25;10.17;;;8.80;;
8737;SDS011;4405;49.272;8.590;2022-11-20T05:07:51;10.57;;;8.87;;
8737;SDS011;4405;49.272;8.590;2022-11-20T05:10:17;12.03;;;8.67;;
8737;SDS011;4405;49.272;8.590;2022-11-20T05:12:44;9.20;;;8.13;;
8737;SDS011;4405;49.272;8.590;2022-11-20T05:15:11;10.80;;;8.30;;
8737;SDS011;4405;49.272;8.590;2022-11-20T05:17:38;8.93;;;7.17;;
8737;SDS011;4405;49.272;8.590;2022-11-20T05:20:04;9.00;;;7.40;;
8737;SDS011;4405;49.272;8.590;2022-11-20T05:22:31;9.50;;;7.60;;
8737;SDS011;4405;49.272;8.590;2022-11-20T05:24:59;7.27;;;6.57;;
8737;SDS011;4405;49.272;8.590;2022-11-20T05:27:25;8.13;;;7.13;;
8737;SDS011;4405;49.272;8.590;2022-11-20T05:29:52;7.83;;;7.00;;
8737;SDS011;4405;49.272;8.590;2022-11-20T05:32:19;8.23;;;7.33;;
8737;SDS011;4405;49.272;8.590;2022-11-20T05:34:46;8.20;;;7.40;;
8737;SDS011;4405;49.272;8.590;2022-11-20T05:37:12;7.60;;;6.90;;
8737;SDS011;4405;49.272;8.590;2022-11-20T05:39:38;7.33;;;6.47;;
8737;SDS011;4405;49.272;8.590;2022-11-20T05:42:06;7.70;;;7.00;;
8737;SDS011;4405;49.272;8.590;2022-11-20T05:44:50;8.83;;;7.10;;
8737;SDS011;4405;49.272;8.590;2022-11-20T05:47:17;7.97;;;7.17;;
8737;SDS011;4405;49.272;8.590;2022-11-20T05:49:44;8.50;;;7.70;;
8737;SDS011;4405;49.272;8.590;2022-11-20T05:52:11;8.17;;;7.37;;
8737;SDS011;4405;49.272;8.590;2022-11-20T05:54:37;7.80;;;7.10;;
8737;SDS011;4405;49.272;8.590;2022-11-20T05:57:03;7.63;;;6.83;;
8737;SDS011;4405;49.272;8.590;2022-11-20T05:59:30;8.70;;;7.80;;
8737;SDS011;4405;49.272;8.590;2022-11-20T06:01:56;9.73;;;8.73;;
8737;SDS011;4405;49.272;8.590;2022-11-20T06:04:22;8.77;;;7.43;;
8737;SDS011;4405;49.272;8.590;2022-11-20T06:06:50;8.60;;;7.77;;
8737;SDS011;4405;49.272;8.590;2022-11-20T06:09:16;8.77;;;7.30;;
8737;SDS011;4405;49.272;8.590;2022-11-20T06:11:43;8.07;;;7.27;;
8737;SDS011;4405;49.272;8.590;2022-11-20T06:14:09;9.27;;;7.37;;
8737;SDS011;4405;49.272;8.590;2022-11-20T06:16:35;8.70;;;7.53;;
8737;SDS011;4405;49.272;8.590;2022-11-20T06:19:02;8.10;;;7.30;;
8737;SDS011;4405;49.272;8.590;2022-11-20T06:21:28;9.03;;;7.80;;
8737;SDS011;4405;49.272;8.590;2022-11-20T06:23:56;11.20;;;8.00;;
8737;SDS011;4405;49.272;8.590;2022-11-20T06:26:22;8.97;;;8.07;;
8737;SDS011;4405;49.272;8.590;2022-11-20T06:28:49;10.57;;;9.23;;
8737;SDS011;4405;49.272;8.590;2022-11-20T06:31:18;11.73;;;9.53;;
8737;SDS011;4405;49.272;8.590;2022-11-20T06:33:45;13.33;;;11.03;;
8737;SDS011;4405;49.272;8.590;2022-11-20T06:36:12;12.50;;;10.83;;
8737;SDS011;4405;49.272;8.590;2022-11-20T06:38:39;12.13;;;9.80;;
8737;SDS011;4405;49.272;8.590;2022-11-20T06:41:08;10.90;;;9.60;;
8737;SDS011;4405;49.272;8.590;2022-11-20T06:43:36;13.57;;;10.97;;
8737;SDS011;4405;49.272;8.590;2022-11-20T06:46:02;13.90;;;11.57;;
8737;SDS011;4405;49.272;8.590;2022-11-20T06:48:29;13.77;;;12.37;;
8737;SDS011;4405;49.272;8.590;2022-11-20T06:50:55;32.40;;;22.10;;
8737;SDS011;4405;49.272;8.590;2022-11-20T06:53:22;19.07;;;13.87;;
8737;SDS011;4405;49.272;8.590;2022-11-20T06:55:48;18.43;;;14.27;;
8737;SDS011;4405;49.272;8.590;2022-11-20T06:58:20;21.07;;;13.53;;
8737;SDS011;4405;49.272;8.590;2022-11-20T07:00:46;14.10;;;10.03;;
8737;SDS011;4405;49.272;8.590;2022-11-20T07:03:13;12.57;;;11.27;;
8737;SDS011;4405;49.272;8.590;2022-11-20T07:05:39;9.00;;;8.03;;
8737;SDS011;4405;49.272;8.590;2022-11-20T07:08:06;7.27;;;6.50;;
8737;SDS011;4405;49.272;8.590;2022-11-20T07:10:33;6.97;;;5.83;;
8737;SDS011;4405;49.272;8.590;2022-11-20T07:12:59;8.67;;;6.67;;
8737;SDS011;4405;49.272;8.590;2022-11-20T07:15:27;10.20;;;5.70;;
8737;SDS011;4405;49.272;8.590;2022-11-20T07:17:53;5.80;;;5.30;;
8737;SDS011;4405;49.272;8.590;2022-11-20T07:20:20;4.87;;;4.37;;
8737;SDS011;4405;49.272;8.590;2022-11-20T07:22:46;4.67;;;4.27;;
8737;SDS011;4405;49.272;8.590;2022-11-20T07:25:12;4.63;;;4.10;;
8737;SDS011;4405;49.272;8.590;2022-11-20T07:27:39;4.90;;;4.40;;
8737;SDS011;4405;49.272;8.590;2022-11-20T07:30:05;4.50;;;4.00;;
8737;SDS011;4405;49.272;8.590;2022-11-20T07:32:33;4.23;;;3.93;;
8737;SDS011;4405;49.272;8.590;2022-11-20T07:35:00;4.03;;;3.60;;
8737;SDS011;4405;49.272;8.590;2022-11-20T07:37:26;5.57;;;3.77;;
8737;SDS011;4405;49.272;8.590;2022-11-20T07:39:52;4.03;;;3.73;;
8737;SDS011;4405;49.272;8.590;2022-11-20T07:42:19;4.13;;;3.73;;
8737;SDS011;4405;49.272;8.590;2022-11-20T07:44:45;4.13;;;3.77;;
8737;SDS011;4405;49.272;8.590;2022-11-20T07:47:11;4.13;;;3.73;;
8737;SDS011;4405;49.272;8.590;2022-11-20T07:49:39;6.10;;;3.80;;
8737;SDS011;4405;49.272;8.590;2022-11-20T07:52:05;4.50;;;3.57;;
8737;SDS011;4405;49.272;8.590;2022-11-20T07:54:32;5.87;;;3.43;;
8737;SDS011;4405;49.272;8.590;2022-11-20T07:56:58;4.07;;;3.77;;
8737;SDS011;4405;49.272;8.590;2022-11-20T07:59:24;4.07;;;3.53;;
8737;SDS011;4405;49.272;8.590;2022-11-20T08:01:53;3.63;;;3.33;;
8737;SDS011;4405;49.272;8.590;2022-11-20T08:04:20;4.53;;;3.60;;
8737;SDS011;4405;49.272;8.590;2022-11-20T08:06:51;3.70;;;3.40;;
8737;SDS011;4405;49.272;8.590;2022-11-20T08:09:17;4.17;;;3.77;;
8737;SDS011;4405;49.272;8.590;2022-11-20T08:11:46;5.07;;;3.43;;
8737;SDS011;4405;49.272;8.590;2022-11-20T08:14:41;4.97;;;3.43;;
8737;SDS011;4405;49.272;8.590;2022-11-20T08:17:07;4.83;;;3.87;;
8737;SDS011;4405;49.272;8.590;2022-11-20T08:19:34;4.50;;;4.03;;
8737;SDS011;4405;49.272;8.590;2022-11-20T08:22:02;4.00;;;3.67;;
8737;SDS011;4405;49.272;8.590;2022-11-20T08:24:28;4.13;;;3.50;;
8737;SDS011;4405;49.272;8.590;2022-11-20T08:26:56;4.03;;;3.73;;
8737;SDS011;4405;49.272;8.590;2022-11-20T08:29:23;3.83;;;3.57;;
8737;SDS011;4405;49.272;8.590;2022-11-20T08:31:49;4.40;;;3.67;;
8737;SDS011;4405;49.272;8.590;2022-11-20T08:34:15;3.63;;;3.33;;
8737;SDS011;4405;49.272;8.590;2022-11-20T08:36:42;3.47;;;3.23;;
8737;SDS011;4405;49.272;8.590;2022-11-20T08:39:12;3.90;;;3.40;;
8737;SDS011;4405;49.272;8.590;2022-11-20T08:41:38;4.07;;;3.50;;
8737;SDS011;4405;49.272;8.590;2022-11-20T08:44:08;3.73;;;3.40;;
8737;SDS011;4405;49.272;8.590;2022-11-20T08:46:35;3.93;;;3.50;;
8737;SDS011;4405;49.272;8.590;2022-11-20T08:49:02;3.83;;;3.43;;
8737;SDS011;4405;49.272;8.590;2022-11-20T08:51:28;4.00;;;3.73;;
8737;SDS011;4405;49.272;8.590;2022-11-20T08:53:54;3.57;;;3.40;;
8737;SDS011;4405;49.272;8.590;2022-11-20T08:56:22;4.20;;;3.80;;
8737;SDS011;4405;49.272;8.590;2022-11-20T08:58:49;3.63;;;3.23;;
8737;SDS011;4405;49.272;8.590;2022-11-20T09:01:16;4.30;;;3.67;;
8737;SDS011;4405;49.272;8.590;2022-11-20T09:03:42;3.87;;;3.57;;
8737;SDS011;4405;49.272;8.590;2022-11-20T09:06:08;3.67;;;3.43;;
8737;SDS011;4405;49.272;8.590;2022-11-20T09:08:35;3.23;;;3.10;;
8737;SDS011;4405;49.272;8.590;2022-11-20T09:11:03;3.73;;;3.43;;
8737;SDS011;4405;49.272;8.590;2022-11-20T09:13:31;3.43;;;3.23;;
8737;SDS011;4405;49.272;8.590;2022-11-20T09:15:58;4.13;;;3.53;;
8737;SDS011;4405;49.272;8.590;2022-11-20T09:18:25;3.80;;;3.50;;
8737;SDS011;4405;49.272;8.590;2022-11-20T09:20:55;4.70;;;4.00;;
8737;SDS011;4405;49.272;8.590;2022-11-20T09:23:22;3.70;;;3.40;;
8737;SDS011;4405;49.272;8.590;2022-11-20T09:25:48;3.60;;;3.40;;
8737;SDS011;4405;49.272;8.590;2022-11-20T09:28:15;3.70;;;3.40;;
8737;SDS011;4405;49.272;8.590;2022-11-20T09:30:43;3.43;;;3.23;;
8737;SDS011;4405;49.272;8.590;2022-11-20T09:33:10;4.07;;;3.40;;
8737;SDS011;4405;49.272;8.590;2022-11-20T09:35:36;3.57;;;3.37;;
8737;SDS011;4405;49.272;8.590;2022-11-20T09:38:06;3.60;;;3.33;;
8737;SDS011;4405;49.272;8.590;2022-11-20T09:40:32;3.33;;;3.00;;
8737;SDS011;4405;49.272;8.590;2022-11-20T09:43:01;5.00;;;3.73;;
8737;SDS011;4405;49.272;8.590;2022-11-20T09:45:33;3.30;;;3.10;;
8737;SDS011;4405;49.272;8.590;2022-11-20T09:48:08;3.33;;;3.03;;
8737;SDS011;4405;49.272;8.590;2022-11-20T09:50:42;3.80;;;3.50;;
8737;SDS011;4405;49.272;8.590;2022-11-20T09:53:13;4.53;;;3.73;;
8737;SDS011;4405;49.272;8.590;2022-11-20T09:55:41;3.37;;;3.20;;
8737;SDS011;4405;49.272;8.590;2022-11-20T09:58:12;3.80;;;3.10;;
8737;SDS011;4405;49.272;8.590;2022-11-20T10:00:41;3.40;;;3.10;;
8737;SDS011;4405;49.272;8.590;2022-11-20T10:03:13;5.33;;;3.10;;
8737;SDS011;4405;49.272;8.590;2022-11-20T10:05:41;2.70;;;2.60;;
8737;SDS011;4405;49.272;8.590;2022-11-20T10:08:10;2.90;;;2.70;;
8737;SDS011;4405;49.272;8.590;2022-11-20T10:10:40;3.43;;;3.17;;
8737;SDS011;4405;49.272;8.590;2022-11-20T10:13:15;2.90;;;2.70;;
8737;SDS011;4405;49.272;8.590;2022-11-20T10:15:45;3.20;;;2.87;;
8737;SDS011;4405;49.272;8.590;2022-11-20T10:18:17;2.80;;;2.60;;
8737;SDS011;4405;49.272;8.590;2022-11-20T10:20:46;4.60;;;3.00;;
8737;SDS011;4405;49.272;8.590;2022-11-20T10:23:20;2.87;;;2.67;;
8737;SDS011;4405;49.272;8.590;2022-11-20T10:25:50;2.80;;;2.60;;
8737;SDS011;4405;49.272;8.590;2022-11-20T10:28:24;2.73;;;2.63;;
8737;SDS011;4405;49.272;8.590;2022-11-20T10:30:55;2.50;;;2.40;;
8737;SDS011;4405;49.272;8.590;2022-11-20T10:33:24;2.77;;;2.60;;
8737;SDS011;4405;49.272;8.590;2022-11-20T10:35:59;4.17;;;2.70;;
8737;SDS011;4405;49.272;8.590;2022-11-20T10:38:30;2.50;;;2.40;;
8737;SDS011;4405;49.272;8.590;2022-11-20T10:41:00;2.30;;;2.20;;
8737;SDS011;4405;49.272;8.590;2022-11-20T10:43:41;2.53;;;2.03;;
8737;SDS011;4405;49.272;8.590;2022-11-20T10:46:08;2.50;;;2.30;;
8737;SDS011;4405;49.272;8.590;2022-11-20T10:48:37;2.50;;;2.30;;
8737;SDS011;4405;49.272;8.590;2022-11-20T10:51:13;2.20;;;2.10;;
8737;SDS011;4405;49.272;8.590;2022-11-20T10:53:51;2.40;;;2.30;;
8737;SDS011;4405;49.272;8.590;2022-11-20T10:56:20;2.80;;;2.50;;
8737;SDS011;4405;49.272;8.590;2022-11-20T10:58:50;2.60;;;2.50;;
8737;SDS011;4405;49.272;8.590;2022-11-20T11:01:19;3.03;;;2.67;;
8737;SDS011;4405;49.272;8.590;2022-11-20T11:03:48;3.00;;;2.80;;
8737;SDS011;4405;49.272;8.590;2022-11-20T11:06:20;2.97;;;2.80;;
8737;SDS011;4405;49.272;8.590;2022-11-20T11:08:50;3.13;;;2.90;;
8737;SDS011;4405;49.272;8.590;2022-11-20T11:11:20;3.10;;;2.90;;
8737;SDS011;4405;49.272;8.590;2022-11-20T11:13:47;3.33;;;3.03;;
8737;SDS011;4405;49.272;8.590;2022-11-20T11:16:19;2.73;;;2.53;;
8737;SDS011;4405;49.272;8.590;2022-11-20T11:18:47;3.10;;;2.90;;
8737;SDS011;4405;49.272;8.590;2022-11-20T11:21:14;3.70;;;3.00;;
8737;SDS011;4405;49.272;8.590;2022-11-20T11:23:47;2.80;;;2.60;;
8737;SDS011;4405;49.272;8.590;2022-11-20T11:26:23;2.70;;;2.60;;
8737;SDS011;4405;49.272;8.590;2022-11-20T11:28:52;4.83;;;3.70;;
8737;SDS011;4405;49.272;8.590;2022-11-20T11:31:22;4.30;;;3.90;;
8737;SDS011;4405;49.272;8.590;2022-11-20T11:33:50;2.67;;;2.40;;
8737;SDS011;4405;49.272;8.590;2022-11-20T11:36:17;2.60;;;2.40;;
8737;SDS011;4405;49.272;8.590;2022-11-20T11:38:44;3.13;;;2.27;;
8737;SDS011;4405;49.272;8.590;2022-11-20T11:41:12;2.57;;;2.00;;
8737;SDS011;4405;49.272;8.590;2022-11-20T11:43:48;2.17;;;1.80;;
8737;SDS011;4405;49.272;8.590;2022-11-20T11:46:51;2.97;;;1.67;;
8737;SDS011;4405;49.272;8.590;2022-11-20T11:49:20;3.13;;;1.63;;
8737;SDS011;4405;49.272;8.590;2022-11-20T11:51:50;2.77;;;1.83;;
8737;SDS011;4405;49.272;8.590;2022-11-20T11:54:23;2.80;;;2.03;;
8737;SDS011;4405;49.272;8.590;2022-11-20T11:56:50;1.83;;;1.60;;
8737;SDS011;4405;49.272;8.590;2022-11-20T11:59:19;1.80;;;1.30;;
8737;SDS011;4405;49.272;8.590;2022-11-20T12:01:50;2.83;;;1.60;;
8737;SDS011;4405;49.272;8.590;2022-11-20T12:04:21;1.80;;;1.43;;
8737;SDS011;4405;49.272;8.590;2022-11-20T12:06:50;4.47;;;1.70;;
8737;SDS011;4405;49.272;8.590;2022-11-20T12:09:18;2.83;;;1.47;;
8737;SDS011;4405;49.272;8.590;2022-11-20T12:11:46;7.37;;;1.50;;
8737;SDS011;4405;49.272;8.590;2022-11-20T12:14:16;1.97;;;1.53;;
8737;SDS011;4405;49.272;8.590;2022-11-20T12:16:48;2.20;;;1.90;;
8737;SDS011;4405;49.272;8.590;2022-11-20T12:19:15;3.27;;;1.50;;
8737;SDS011;4405;49.272;8.590;2022-11-20T12:21:46;3.70;;;1.80;;
8737;SDS011;4405;49.272;8.590;2022-11-20T12:24:33;2.17;;;1.83;;
8737;SDS011;4405;49.272;8.590;2022-11-20T12:27:05;1.30;;;1.30;;
8737;SDS011;4405;49.272;8.590;2022-11-20T12:29:41;3.33;;;1.57;;
8737;SDS011;4405;49.272;8.590;2022-11-20T12:34:56;4.87;;;1.63;;
8737;SDS011;4405;49.272;8.590;2022-11-20T12:37:33;1.87;;;1.43;;
8737;SDS011;4405;49.272;8.590;2022-11-20T12:40:02;3.53;;;1.40;;
8737;SDS011;4405;49.272;8.590;2022-11-20T12:42:39;5.10;;;1.60;;
8737;SDS011;4405;49.272;8.590;2022-11-20T12:48:36;2.83;;;1.40;;
8737;SDS011;4405;49.272;8.590;2022-11-20T12:51:15;3.33;;;1.37;;
8737;SDS011;4405;49.272;8.590;2022-11-20T12:53:47;1.30;;;1.20;;
8737;SDS011;4405;49.272;8.590;2022-11-20T12:56:18;2.30;;;1.40;;
8737;SDS011;4405;49.272;8.590;2022-11-20T12:58:49;5.10;;;1.23;;
8737;SDS011;4405;49.272;8.590;2022-11-20T13:01:21;1.20;;;1.10;;
8737;SDS011;4405;49.272;8.590;2022-11-20T13:04:07;1.43;;;1.10;;
8737;SDS011;4405;49.272;8.590;2022-11-20T13:06:34;1.40;;;1.30;;
8737;SDS011;4405;49.272;8.590;2022-11-20T13:09:02;1.30;;;1.20;;
8737;SDS011;4405;49.272;8.590;2022-11-20T13:11:32;1.97;;;1.30;;
8737;SDS011;4405;49.272;8.590;2022-11-20T13:14:03;2.40;;;1.53;;
8737;SDS011;4405;49.272;8.590;2022-11-20T13:16:32;1.97;;;1.30;;
8737;SDS011;4405;49.272;8.590;2022-11-20T13:19:01;1.20;;;1.20;;
8737;SDS011;4405;49.272;8.590;2022-11-20T13:21:35;1.63;;;1.13;;
8737;SDS011;4405;49.272;8.590;2022-11-20T13:24:05;2.13;;;1.33;;
8737;SDS011;4405;49.272;8.590;2022-11-20T13:26:31;5.00;;;1.13;;
8737;SDS011;4405;49.272;8.590;2022-11-20T13:29:02;2.27;;;1.20;;
8737;SDS011;4405;49.272;8.590;2022-11-20T13:31:30;3.20;;;1.27;;
8737;SDS011;4405;49.272;8.590;2022-11-20T13:33:57;1.47;;;1.37;;
8737;SDS011;4405;49.272;8.590;2022-11-20T13:36:25;2.93;;;1.50;;
8737;SDS011;4405;49.272;8.590;2022-11-20T13:38:52;2.23;;;1.43;;
8737;SDS011;4405;49.272;8.590;2022-11-20T13:41:24;1.20;;;1.07;;
8737;SDS011;4405;49.272;8.590;2022-11-20T13:43:58;1.50;;;1.30;;
8737;SDS011;4405;49.272;8.590;2022-11-20T13:46:37;2.33;;;1.53;;
8737;SDS011;4405;49.272;8.590;2022-11-20T13:49:07;2.67;;;1.30;;
8737;SDS011;4405;49.272;8.590;2022-11-20T13:51:35;1.43;;;1.30;;
8737;SDS011;4405;49.272;8.590;2022-11-20T13:54:06;1.50;;;1.40;;
8737;SDS011;4405;49.272;8.590;2022-11-20T13:56:43;2.60;;;1.50;;
8737;SDS011;4405;49.272;8.590;2022-11-20T13:59:25;1.83;;;1.30;;
8737;SDS011;4405;49.272;8.590;2022-11-20T14:01:54;1.40;;;1.30;;
8737;SDS011;4405;49.272;8.590;2022-11-20T14:04:23;1.57;;;1.47;;
8737;SDS011;4405;49.272;8.590;2022-11-20T14:06:52;1.47;;;1.30;;
8737;SDS011;4405;49.272;8.590;2022-11-20T14:09:25;1.50;;;1.40;;
8737;SDS011;4405;49.272;8.590;2022-11-20T14:11:53;1.60;;;1.37;;
8737;SDS011;4405;49.272;8.590;2022-11-20T14:14:20;1.93;;;1.40;;
8737;SDS011;4405;49.272;8.590;2022-11-20T14:16:48;3.10;;;1.67;;
8737;SDS011;4405;49.272;8.590;2022-11-20T14:19:25;5.13;;;1.50;;
8737;SDS011;4405;49.272;8.590;2022-11-20T14:21:52;3.20;;;1.40;;
8737;SDS011;4405;49.272;8.590;2022-11-20T14:24:20;4.00;;;1.67;;
8737;SDS011;4405;49.272;8.590;2022-11-20T14:26:49;1.60;;;1.30;;
8737;SDS011;4405;49.272;8.590;2022-11-20T14:29:18;3.40;;;1.40;;
8737;SDS011;4405;49.272;8.590;2022-11-20T14:31:45;2.67;;;1.40;;
8737;SDS011;4405;49.272;8.590;2022-11-20T14:34:13;2.90;;;1.43;;
8737;SDS011;4405;49.272;8.590;2022-11-20T14:36:43;4.37;;;1.70;;
8737;SDS011;4405;49.272;8.590;2022-11-20T14:39:10;1.23;;;1.13;;
8737;SDS011;4405;49.272;8.590;2022-11-20T14:41:37;1.73;;;1.30;;
8737;SDS011;4405;49.272;8.590;2022-11-20T14:44:03;3.50;;;1.60;;
8737;SDS011;4405;49.272;8.590;2022-11-20T14:46:31;2.43;;;1.40;;
8737;SDS011;4405;49.272;8.590;2022-11-20T14:49:00;3.33;;;1.43;;
8737;SDS011;4405;49.272;8.590;2022-11-20T14:51:28;2.30;;;1.40;;
8737;SDS011;4405;49.272;8.590;2022-11-20T14:53:55;1.43;;;1.33;;
8737;SDS011;4405;49.272;8.590;2022-11-20T14:56:24;2.70;;;1.40;;
8737;SDS011;4405;49.272;8.590;2022-11-20T14:58:56;2.63;;;1.40;;
8737;SDS011;4405;49.272;8.590;2022-11-20T15:01:25;1.67;;;1.50;;
8737;SDS011;4405;49.272;8.590;2022-11-20T15:03:59;4.07;;;2.07;;
8737;SDS011;4405;49.272;8.590;2022-11-20T15:06:25;2.27;;;2.07;;
8737;SDS011;4405;49.272;8.590;2022-11-20T15:08:52;2.00;;;1.53;;
8737;SDS011;4405;49.272;8.590;2022-11-20T15:11:19;2.63;;;2.07;;
8737;SDS011;4405;49.272;8.590;2022-11-20T15:13:46;3.23;;;2.33;;
8737;SDS011;4405;49.272;8.590;2022-11-20T15:16:13;4.30;;;2.73;;
8737;SDS011;4405;49.272;8.590;2022-11-20T15:18:41;2.03;;;1.60;;
8737;SDS011;4405;49.272;8.590;2022-11-20T15:21:10;3.07;;;1.90;;
8737;SDS011;4405;49.272;8.590;2022-11-20T15:23:37;2.47;;;1.33;;
8737;SDS011;4405;49.272;8.590;2022-11-20T15:26:03;1.70;;;1.53;;
8737;SDS011;4405;49.272;8.590;2022-11-20T15:28:30;3.73;;;1.83;;